Time;durP1;ratioP1;P1;durP2;ratioP2;P2;SDS_P1;SDS_P2;PMS_P1;PMS_P2;Temp;Humidity;BMP_temperature;BMP_pressure;BME280_temperature;BME280_humidity;BME280_pressure;Samples;Min_cycle;Max_cycle;Signal;HPM_P1;HPM_P2
2020/12/16 00:01:35;;;;;;;58.17;22.35;;;9.10;94.30;;;;;;4991335;28;20038;-57
2020/12/16 00:04:00;;;;;;;53.88;21.10;;;9.10;94.30;;;;;;4988625;28;20034;-58
2020/12/16 00:06:26;;;;;;;55.25;20.92;;;9.10;94.60;;;;;;4991425;28;20030;-59
2020/12/16 00:08:51;;;;;;;58.33;21.23;;;9.10;94.30;;;;;;4990949;28;20031;-57
2020/12/16 00:11:17;;;;;;;60.45;21.35;;;9.10;94.30;;;;;;4990365;28;20022;-57
2020/12/16 00:13:42;;;;;;;61.03;21.35;;;9.00;94.60;;;;;;4989924;28;20038;-57
2020/12/16 00:16:08;;;;;;;56.78;22.38;;;9.00;94.30;;;;;;4990897;28;20509;-57
2020/12/16 00:18:34;;;;;;;56.65;22.27;;;9.00;94.30;;;;;;4990004;28;20030;-59
2020/12/16 00:20:59;;;;;;;59.47;22.70;;;9.00;94.30;;;;;;4990824;28;20034;-57
2020/12/16 00:23:25;;;;;;;57.22;20.92;;;9.00;94.40;;;;;;4988984;28;20030;-56
2020/12/16 00:25:50;;;;;;;57.03;22.63;;;9.00;94.30;;;;;;4988598;28;20366;-58
2020/12/16 00:28:16;;;;;;;58.30;22.00;;;9.00;94.30;;;;;;4987794;28;20037;-59
2020/12/16 00:30:47;;;;;;;58.45;22.48;;;8.90;94.40;;;;;;4987599;28;20056;-58
2020/12/16 00:33:14;;;;;;;56.17;20.88;;;8.90;94.40;;;;;;4978760;28;20037;-57
2020/12/16 00:35:39;;;;;;;54.83;22.33;;;8.90;94.40;;;;;;4991146;28;20050;-56
2020/12/16 00:38:05;;;;;;;57.03;21.45;;;8.90;94.40;;;;;;4990746;28;20062;-58
2020/12/16 00:40:30;;;;;;;49.22;21.20;;;8.90;94.40;;;;;;4987302;28;20015;-58
2020/12/16 00:42:56;;;;;;;56.28;20.55;;;8.90;94.40;;;;;;4990771;28;20270;-58
2020/12/16 00:45:22;;;;;;;55.08;20.83;;;8.90;94.40;;;;;;4989579;28;20030;-58
2020/12/16 00:47:47;;;;;;;52.67;20.13;;;8.80;94.40;;;;;;4979829;28;20077;-58
2020/12/16 00:50:13;;;;;;;52.72;20.58;;;8.80;94.40;;;;;;4987903;28;20030;-57
2020/12/16 00:52:38;;;;;;;53.83;21.05;;;8.80;94.40;;;;;;4982601;28;20041;-57
2020/12/16 00:55:04;;;;;;;48.47;20.23;;;8.80;94.40;;;;;;4990638;28;20101;-59
2020/12/16 00:57:30;;;;;;;51.83;19.90;;;8.80;94.40;;;;;;4957416;28;20034;-56
2020/12/16 00:59:55;;;;;;;47.72;20.48;;;8.80;94.40;;;;;;4990554;28;20493;-59
2020/12/16 01:02:21;;;;;;;65.72;21.50;;;8.80;94.40;;;;;;4990985;28;20065;-58
2020/12/16 01:04:46;;;;;;;54.03;20.02;;;8.80;94.40;;;;;;4989527;28;20595;-57
2020/12/16 01:07:11;;;;;;;49.20;20.33;;;8.80;94.40;;;;;;4985699;28;20031;-57
2020/12/16 01:09:37;;;;;;;54.45;20.73;;;8.80;94.40;;;;;;4989783;28;20102;-58
2020/12/16 01:12:03;;;;;;;56.55;19.63;;;8.70;94.40;;;;;;4990642;28;20034;-58
2020/12/16 01:14:29;;;;;;;46.58;19.67;;;8.70;94.40;;;;;;4989732;28;20101;-57
2020/12/16 01:16:54;;;;;;;45.10;19.45;;;8.70;94.40;;;;;;4969356;28;20038;-56
2020/12/16 01:19:19;;;;;;;52.45;21.13;;;8.70;94.40;;;;;;4976592;28;20122;-58
2020/12/16 01:21:45;;;;;;;53.30;19.95;;;8.70;94.40;;;;;;4976907;28;20477;-57
2020/12/16 01:24:11;;;;;;;45.40;19.63;;;8.60;94.40;;;;;;4989350;28;20042;-58
2020/12/16 01:26:44;;;;;;;49.05;19.35;;;8.60;94.40;;;;;;4973311;28;20061;-58
2020/12/16 01:29:10;;;;;;;45.72;19.58;;;8.60;94.40;;;;;;4972034;28;20058;-58
2020/12/16 01:31:37;;;;;;;42.72;18.20;;;8.60;94.30;;;;;;4980564;28;20522;-57
2020/12/16 01:34:02;;;;;;;44.28;18.40;;;8.60;94.30;;;;;;4988956;28;20433;-57
2020/12/16 01:36:28;;;;;;;41.42;19.23;;;8.60;94.40;;;;;;4990233;28;20084;-58
2020/12/16 01:38:53;;;;;;;45.40;18.67;;;8.60;94.30;;;;;;4976370;28;20521;-58
2020/12/16 01:41:19;;;;;;;41.97;19.40;;;8.60;94.40;;;;;;4978790;28;20099;-59
2020/12/16 01:43:44;;;;;;;43.75;20.00;;;8.60;94.40;;;;;;4985598;28;20093;-58
2020/12/16 01:46:10;;;;;;;42.22;19.23;;;8.50;94.40;;;;;;4990673;28;20042;-57
2020/12/16 01:48:36;;;;;;;41.22;17.77;;;8.50;94.40;;;;;;4990461;28;20470;-58
2020/12/16 01:51:01;;;;;;;48.28;19.35;;;8.50;94.40;;;;;;4985053;28;20077;-58
2020/12/16 01:53:27;;;;;;;45.88;17.95;;;8.50;94.40;;;;;;4984123;28;20105;-58
2020/12/16 01:55:52;;;;;;;46.15;19.63;;;8.50;94.50;;;;;;4981147;28;20053;-57
2020/12/16 01:58:18;;;;;;;42.55;18.55;;;8.50;94.40;;;;;;4977811;28;20042;-59
2020/12/16 02:00:45;;;;;;;42.08;18.10;;;8.50;94.50;;;;;;4991281;28;20530;-57
2020/12/16 02:03:10;;;;;;;43.50;18.33;;;8.40;94.50;;;;;;4971312;28;20040;-59
2020/12/16 02:05:36;;;;;;;40.45;17.80;;;8.40;94.50;;;;;;4972493;28;20113;-57
2020/12/16 02:08:01;;;;;;;38.08;18.27;;;8.40;94.50;;;;;;4970544;28;20034;-57
2020/12/16 02:10:27;;;;;;;38.17;19.25;;;8.40;94.50;;;;;;4982299;28;20031;-58
2020/12/16 02:12:52;;;;;;;37.88;17.73;;;8.40;94.50;;;;;;4982985;28;20552;-57
2020/12/16 02:15:18;;;;;;;35.88;16.35;;;8.40;94.50;;;;;;4990282;28;20030;-58
2020/12/16 02:17:43;;;;;;;37.15;18.50;;;8.40;94.50;;;;;;4972026;28;20026;-56
2020/12/16 02:20:09;;;;;;;43.90;17.27;;;8.40;94.60;;;;;;4987581;28;20038;-58
2020/12/16 02:22:36;;;;;;;44.00;18.42;;;8.40;94.50;;;;;;4987975;28;20054;-58
2020/12/16 02:25:10;;;;;;;37.70;17.13;;;8.40;94.50;;;;;;4976552;28;20031;-58
2020/12/16 02:27:36;;;;;;;40.22;16.55;;;8.30;94.50;;;;;;4972447;28;20160;-57
2020/12/16 02:30:03;;;;;;;33.67;16.40;;;8.30;94.50;;;;;;4988084;28;20117;-58
2020/12/16 02:32:28;;;;;;;36.63;17.20;;;8.30;94.50;;;;;;4979987;28;20042;-56
2020/12/16 02:34:55;;;;;;;33.75;16.40;;;8.30;94.50;;;;;;4979249;28;20030;-58
2020/12/16 02:37:20;;;;;;;36.78;16.48;;;8.30;94.50;;;;;;4987945;28;20014;-57
2020/12/16 02:39:46;;;;;;;38.65;16.38;;;8.30;94.50;;;;;;4966109;28;20085;-59
2020/12/16 02:42:12;;;;;;;42.58;17.63;;;8.30;94.60;;;;;;4983241;28;20060;-57
2020/12/16 02:44:37;;;;;;;38.08;17.20;;;8.30;94.60;;;;;;4983879;28;20054;-59
2020/12/16 02:47:03;;;;;;;38.10;17.20;;;8.30;94.60;;;;;;4980800;28;20037;-58
2020/12/16 02:49:29;;;;;;;31.52;16.38;;;8.30;94.60;;;;;;4975640;28;20510;-58
2020/12/16 02:51:55;;;;;;;37.08;17.50;;;8.30;94.60;;;;;;4982610;28;20104;-58
2020/12/16 02:54:23;;;;;;;40.65;16.73;;;8.30;94.60;;;;;;4988901;28;20108;-57
2020/12/16 02:56:53;;;;;;;34.20;16.23;;;8.30;94.60;;;;;;4988600;28;20037;-59
2020/12/16 02:59:23;;;;;;;31.77;15.60;;;8.30;94.60;;;;;;4981730;28;20110;-59
2020/12/16 03:01:49;;;;;;;34.13;15.75;;;8.20;94.60;;;;;;4980136;28;20391;-57
2020/12/16 03:04:15;;;;;;;38.30;17.15;;;8.20;94.60;;;;;;4987451;28;20030;-56
2020/12/16 03:06:41;;;;;;;32.97;16.05;;;8.20;94.60;;;;;;5004415;28;20478;-59
2020/12/16 03:09:07;;;;;;;38.30;17.13;;;8.20;94.60;;;;;;4983187;28;20113;-59
2020/12/16 03:11:32;;;;;;;31.77;16.58;;;8.20;94.60;;;;;;4982384;28;20080;-58
2020/12/16 03:13:58;;;;;;;33.97;15.23;;;8.20;94.60;;;;;;4978931;28;20470;-58
2020/12/16 03:16:23;;;;;;;34.50;16.17;;;8.10;94.60;;;;;;4983490;28;20417;-58
2020/12/16 03:18:49;;;;;;;40.45;16.42;;;8.20;94.60;;;;;;4980144;28;20474;-58
2020/12/16 03:21:24;;;;;;;32.72;16.17;;;8.20;94.60;;;;;;4981940;28;20038;-59
2020/12/16 03:23:53;;;;;;;32.55;16.40;;;8.20;94.60;;;;;;4984807;28;20034;-59
2020/12/16 03:26:19;;;;;;;37.15;15.55;;;8.20;94.60;;;;;;4979008;28;20070;-58
2020/12/16 03:28:44;;;;;;;29.45;14.98;;;8.10;94.60;;;;;;4981150;28;20066;-58
2020/12/16 03:31:11;;;;;;;37.15;16.20;;;8.20;94.60;;;;;;4972258;28;20018;-57
2020/12/16 03:33:36;;;;;;;33.80;15.70;;;8.20;94.60;;;;;;4988758;28;20034;-56
2020/12/16 03:36:02;;;;;;;28.33;14.98;;;8.20;94.60;;;;;;4991311;28;20394;-58
2020/12/16 03:38:27;;;;;;;31.00;16.02;;;8.20;94.60;;;;;;4986119;28;20105;-58
2020/12/16 03:40:53;;;;;;;33.65;16.15;;;8.20;94.60;;;;;;4981993;28;20038;-57
2020/12/16 03:43:18;;;;;;;35.08;16.13;;;8.10;94.60;;;;;;4986474;28;20039;-56
2020/12/16 03:45:44;;;;;;;30.45;15.10;;;8.10;94.60;;;;;;4972070;28;20038;-59
2020/12/16 03:48:09;;;;;;;30.73;13.95;;;8.10;94.60;;;;;;4984021;28;20026;-59
2020/12/16 03:50:35;;;;;;;26.02;14.52;;;8.10;94.70;;;;;;4992093;28;20034;-56
2020/12/16 03:53:00;;;;;;;31.35;15.13;;;8.10;94.70;;;;;;4989219;28;20042;-58
2020/12/16 03:55:26;;;;;;;36.58;15.48;;;8.10;94.60;;;;;;5005162;28;20320;-58
2020/12/16 03:57:52;;;;;;;29.50;14.73;;;8.10;94.70;;;;;;4986452;28;20034;-57
2020/12/16 04:00:17;;;;;;;28.80;14.45;;;8.10;94.70;;;;;;4989628;28;20031;-57
2020/12/16 04:02:43;;;;;;;33.05;15.50;;;8.10;94.70;;;;;;4984574;28;20042;-58
2020/12/16 04:05:08;;;;;;;31.33;14.70;;;8.10;94.70;;;;;;4988606;28;20042;-56
2020/12/16 04:07:34;;;;;;;32.45;14.52;;;8.10;94.70;;;;;;4987378;28;20050;-59
2020/12/16 04:09:59;;;;;;;31.40;14.30;;;8.10;94.70;;;;;;4985078;28;20053;-58
2020/12/16 04:12:25;;;;;;;31.15;14.85;;;8.00;94.70;;;;;;4982929;28;20041;-59
2020/12/16 04:14:50;;;;;;;30.48;14.85;;;8.00;94.70;;;;;;4984808;28;20062;-58
2020/12/16 04:17:16;;;;;;;26.15;14.85;;;8.10;94.70;;;;;;4990562;28;20030;-58
2020/12/16 04:19:41;;;;;;;26.73;14.88;;;8.10;94.70;;;;;;4981871;28;20047;-57
2020/12/16 04:22:07;;;;;;;25.27;14.07;;;8.10;94.70;;;;;;4991608;28;20041;-59
2020/12/16 04:24:32;;;;;;;28.90;14.90;;;8.10;94.70;;;;;;4982272;28;20038;-58
2020/12/16 04:26:58;;;;;;;27.02;14.93;;;8.00;94.70;;;;;;4983841;28;20505;-58
2020/12/16 04:29:25;;;;;;;25.40;13.93;;;8.00;94.70;;;;;;4990399;28;20047;-59
2020/12/16 04:31:51;;;;;;;28.30;14.60;;;8.10;94.70;;;;;;4987600;28;20036;-59
2020/12/16 04:34:17;;;;;;;28.30;13.95;;;8.00;94.70;;;;;;4970328;28;20034;-57
2020/12/16 04:36:51;;;;;;;32.50;14.80;;;8.00;94.70;;;;;;4989255;28;20038;-58
2020/12/16 04:39:17;;;;;;;26.83;13.43;;;8.00;94.70;;;;;;4990243;28;20042;-58
2020/12/16 04:41:43;;;;;;;26.73;14.43;;;8.00;94.70;;;;;;4989708;28;20038;-59
2020/12/16 04:44:09;;;;;;;28.90;15.43;;;8.00;94.70;;;;;;4980306;28;20121;-58
2020/12/16 04:46:39;;;;;;;29.92;14.70;;;8.00;94.70;;;;;;4982922;28;20410;-59
2020/12/16 04:49:05;;;;;;;31.73;13.90;;;8.00;94.60;;;;;;4989874;28;20023;-60
2020/12/16 04:51:32;;;;;;;29.38;14.43;;;8.00;94.60;;;;;;4973529;28;20038;-56
2020/12/16 04:53:57;;;;;;;25.67;14.00;;;8.00;94.60;;;;;;4988902;28;20026;-59
2020/12/16 04:56:23;;;;;;;27.65;13.80;;;7.90;94.60;;;;;;4989594;28;20046;-59
2020/12/16 04:58:48;;;;;;;22.60;13.70;;;8.00;94.60;;;;;;4980208;28;20074;-59
2020/12/16 05:01:14;;;;;;;24.20;13.60;;;7.90;94.60;;;;;;4986055;28;20026;-58
2020/12/16 05:03:41;;;;;;;27.05;13.95;;;7.90;94.60;;;;;;4988580;28;20088;-59
2020/12/16 05:06:06;;;;;;;25.35;13.80;;;7.90;94.60;;;;;;4986515;28;20033;-56
2020/12/16 05:08:31;;;;;;;28.05;13.85;;;7.90;94.60;;;;;;4992915;28;20105;-59
2020/12/16 05:10:57;;;;;;;29.38;14.57;;;7.90;94.60;;;;;;4988552;28;20038;-59
2020/12/16 05:13:24;;;;;;;25.10;14.10;;;7.90;94.60;;;;;;4969411;28;20077;-56
2020/12/16 05:15:50;;;;;;;26.98;13.50;;;7.90;94.60;;;;;;4973771;28;20030;-58
2020/12/16 05:18:20;;;;;;;26.90;14.27;;;7.80;94.60;;;;;;4989934;28;20084;-56
2020/12/16 05:20:58;;;;;;;21.42;13.50;;;7.80;94.60;;;;;;5004851;28;20034;-59
2020/12/16 05:23:24;;;;;;;21.27;12.23;;;7.80;94.60;;;;;;4985285;28;20030;-57
2020/12/16 05:26:00;;;;;;;22.90;13.68;;;7.80;94.60;;;;;;4984318;28;20034;-57
2020/12/16 05:28:30;;;;;;;26.45;13.38;;;7.90;94.60;;;;;;4969050;28;20047;-58
2020/12/16 05:30:56;;;;;;;26.33;13.40;;;7.80;94.60;;;;;;4985744;28;20018;-57
2020/12/16 05:33:22;;;;;;;27.50;13.75;;;7.80;94.60;;;;;;4985744;28;20374;-56
2020/12/16 05:35:50;;;;;;;25.17;13.73;;;7.80;94.60;;;;;;4987677;28;20037;-59
2020/12/16 05:38:16;;;;;;;25.13;13.05;;;7.80;94.60;;;;;;4984101;28;20189;-57
2020/12/16 05:40:42;;;;;;;24.35;12.73;;;7.80;94.60;;;;;;4990463;28;20018;-57
2020/12/16 05:43:08;;;;;;;22.77;13.23;;;7.80;94.60;;;;;;4987842;28;20061;-57
2020/12/16 05:45:39;;;;;;;28.70;14.55;;;7.80;94.70;;;;;;4988470;28;20385;-59
2020/12/16 05:48:06;;;;;;;28.25;14.38;;;7.80;94.70;;;;;;4990761;28;20424;-57
2020/12/16 05:50:44;;;;;;;21.45;13.30;;;7.70;94.70;;;;;;4988895;28;20034;-56
2020/12/16 05:53:15;;;;;;;19.80;12.70;;;7.80;94.70;;;;;;4985230;28;20030;-58
2020/12/16 05:55:40;;;;;;;19.80;12.88;;;7.70;94.70;;;;;;4988470;28;20096;-57
2020/12/16 05:58:07;;;;;;;30.60;13.70;;;7.80;94.70;;;;;;4986807;28;20034;-59
2020/12/16 06:00:46;;;;;;;23.35;12.93;;;7.70;94.70;;;;;;4989388;28;20034;-57
2020/12/16 06:03:23;;;;;;;21.63;13.40;;;7.80;94.70;;;;;;4979543;28;20042;-59
2020/12/16 06:05:50;;;;;;;20.58;12.30;;;7.80;94.70;;;;;;4983349;28;20385;-56
2020/12/16 06:08:16;;;;;;;24.60;13.05;;;7.70;94.70;;;;;;4973116;28;20390;-58
2020/12/16 06:10:43;;;;;;;21.33;12.73;;;7.70;94.70;;;;;;4990164;28;20022;-58
2020/12/16 06:13:12;;;;;;;21.52;12.93;;;7.70;94.70;;;;;;4986521;28;20019;-59
2020/12/16 06:15:45;;;;;;;22.98;13.23;;;7.70;94.70;;;;;;4984438;28;20031;-57
2020/12/16 06:18:11;;;;;;;24.83;13.40;;;7.70;94.70;;;;;;4983159;28;20156;-58
2020/12/16 06:20:39;;;;;;;21.55;12.80;;;7.70;94.70;;;;;;4971918;28;20062;-56
2020/12/16 06:23:04;;;;;;;22.80;13.02;;;7.70;94.70;;;;;;4984707;28;20030;-57
2020/12/16 06:25:30;;;;;;;18.27;12.55;;;7.70;94.70;;;;;;4966534;28;20031;-58
2020/12/16 06:27:55;;;;;;;21.90;12.75;;;7.70;94.70;;;;;;4981680;28;20037;-57
2020/12/16 06:30:28;;;;;;;24.35;13.70;;;7.70;94.80;;;;;;4951033;28;20057;-57
2020/12/16 06:33:15;;;;;;;20.95;13.05;;;7.70;94.80;;;;;;4968998;28;20054;-58
2020/12/16 06:35:40;;;;;;;19.17;12.27;;;7.70;94.70;;;;;;4983573;28;20351;-56
2020/12/16 06:38:20;;;;;;;20.20;12.35;;;7.70;94.70;;;;;;4987707;28;20033;-59
2020/12/16 06:40:55;;;;;;;23.08;12.98;;;7.70;94.70;;;;;;4982343;28;20034;-59
2020/12/16 06:43:30;;;;;;;18.17;12.68;;;7.70;94.70;;;;;;4981237;28;20073;-57
2020/12/16 06:45:56;;;;;;;21.43;12.77;;;7.70;95.00;;;;;;4981322;28;20107;-58
2020/12/16 06:48:33;;;;;;;20.50;12.23;;;7.70;94.70;;;;;;4987676;28;20362;-58
2020/12/16 06:51:15;;;;;;;20.17;12.63;;;7.70;94.70;;;;;;4986569;28;20373;-58
2020/12/16 06:53:42;;;;;;;21.05;12.63;;;7.70;94.80;;;;;;4982708;28;20497;-56
2020/12/16 06:56:08;;;;;;;21.80;12.38;;;7.60;94.70;;;;;;4981031;28;20500;-58
2020/12/16 06:58:35;;;;;;;17.77;11.93;;;7.70;94.80;;;;;;4981276;28;20034;-57
2020/12/16 07:01:14;;;;;;;23.45;12.55;;;7.70;94.80;;;;;;4990754;28;20397;-58
2020/12/16 07:03:40;;;;;;;18.80;11.80;;;7.60;94.70;;;;;;4980649;28;20121;-57
2020/12/16 07:06:10;;;;;;;18.77;11.93;;;7.70;94.70;;;;;;4985790;28;20169;-57
2020/12/16 07:08:35;;;;;;;22.60;12.38;;;7.60;94.70;;;;;;4986352;28;20031;-57
2020/12/16 07:11:01;;;;;;;17.27;11.68;;;7.70;94.70;;;;;;4988220;28;20030;-57
2020/12/16 07:13:28;;;;;;;21.50;11.55;;;7.70;94.70;;;;;;4969389;28;20474;-57
2020/12/16 07:15:55;;;;;;;18.85;11.63;;;7.70;94.70;;;;;;4984191;28;20470;-58
2020/12/16 07:18:22;;;;;;;21.13;12.20;;;7.60;94.70;;;;;;4986858;28;20053;-57
2020/12/16 07:20:48;;;;;;;19.48;11.95;;;7.70;94.70;;;;;;4988094;28;20057;-57
2020/12/16 07:23:14;;;;;;;19.60;11.90;;;7.70;94.60;;;;;;4980893;28;20477;-56
2020/12/16 07:25:47;;;;;;;18.73;11.18;;;7.70;94.60;;;;;;4985919;28;20039;-59
2020/12/16 07:28:13;;;;;;;22.65;12.23;;;7.70;94.70;;;;;;4984523;28;20035;-58
2020/12/16 07:30:49;;;;;;;18.75;11.60;;;7.70;94.60;;;;;;4967713;28;20112;-58
2020/12/16 07:33:14;;;;;;;17.15;11.43;;;7.70;94.60;;;;;;4977590;28;20101;-59
2020/12/16 07:35:44;;;;;;;17.63;12.05;;;7.70;94.60;;;;;;4988405;28;20110;-56
2020/12/16 07:38:10;;;;;;;19.67;11.98;;;7.70;94.60;;;;;;4983697;28;20536;-59
2020/12/16 07:40:36;;;;;;;18.48;11.43;;;7.70;94.60;;;;;;4965784;28;20038;-61
2020/12/16 07:43:01;;;;;;;15.18;10.55;;;7.70;94.60;;;;;;4984445;28;20084;-58
2020/12/16 07:45:27;;;;;;;17.92;11.70;;;7.70;94.50;;;;;;4984192;28;20026;-58
2020/12/16 07:47:52;;;;;;;17.48;11.30;;;7.70;94.50;;;;;;4982728;28;20034;-59
2020/12/16 07:50:18;;;;;;;17.75;11.02;;;7.70;94.50;;;;;;4976594;28;20502;-56
2020/12/16 07:52:50;;;;;;;17.00;11.77;;;7.70;94.50;;;;;;4980650;28;20054;-58
2020/12/16 07:55:22;;;;;;;17.88;10.73;;;7.70;94.50;;;;;;4968942;28;20017;-59
2020/12/16 07:57:47;;;;;;;18.08;11.30;;;7.70;94.50;;;;;;4984372;28;20363;-57
2020/12/16 08:00:13;;;;;;;17.13;10.52;;;7.70;94.50;;;;;;4978740;28;20034;-58
2020/12/16 08:02:44;;;;;;;18.02;11.50;;;7.70;94.50;;;;;;4984962;28;20038;-59
2020/12/16 08:05:13;;;;;;;19.90;11.52;;;7.70;94.50;;;;;;4984398;28;20599;-57
2020/12/16 08:07:39;;;;;;;17.95;11.93;;;7.70;94.50;;;;;;4947404;28;20407;-59
2020/12/16 08:10:06;;;;;;;17.08;10.93;;;7.70;94.50;;;;;;4983203;28;20047;-58
2020/12/16 08:12:33;;;;;;;17.02;11.93;;;7.70;94.40;;;;;;4972210;28;21148;-57
2020/12/16 08:15:17;;;;;;;23.58;12.35;;;7.80;94.40;;;;;;4978401;28;20031;-56
2020/12/16 08:17:42;;;;;;;19.90;11.60;;;7.80;94.40;;;;;;4982236;28;20047;-61
2020/12/16 08:20:12;;;;;;;20.55;11.75;;;7.80;94.40;;;;;;4988373;28;20386;-57
2020/12/16 08:22:38;;;;;;;30.95;13.32;;;7.80;94.40;;;;;;4987548;28;20033;-57
2020/12/16 08:25:08;;;;;;;20.25;11.98;;;7.80;94.60;;;;;;4991389;28;20765;-59
2020/12/16 08:27:35;;;;;;;23.92;12.27;;;7.80;94.50;;;;;;4982869;28;20077;-56
2020/12/16 08:30:02;;;;;;;19.35;11.75;;;7.80;94.40;;;;;;4987698;28;20026;-58
2020/12/16 08:32:28;;;;;;;31.02;12.68;;;7.90;94.40;;;;;;4969614;28;20109;-57
2020/12/16 08:34:53;;;;;;;42.25;13.43;;;7.80;94.40;;;;;;4985267;28;20057;-59
2020/12/16 08:37:19;;;;;;;42.22;13.65;;;7.90;94.40;;;;;;4972050;28;20033;-57
2020/12/16 08:39:45;;;;;;;64.20;14.57;;;7.90;94.40;;;;;;4984315;28;20065;-58
2020/12/16 08:42:11;;;;;;;54.22;14.77;;;7.90;94.50;;;;;;4979400;28;20117;-57
2020/12/16 08:44:37;;;;;;;41.70;13.70;;;7.90;94.40;;;;;;4987997;28;20133;-56
2020/12/16 08:47:02;;;;;;;44.45;14.13;;;7.90;94.40;;;;;;4987624;28;20165;-58
2020/12/16 08:49:28;;;;;;;49.22;15.57;;;7.90;94.50;;;;;;4986683;28;20031;-56
2020/12/16 08:51:55;;;;;;;49.35;14.80;;;8.00;94.40;;;;;;4984661;28;20037;-57
2020/12/16 08:54:27;;;;;;;51.08;16.20;;;8.00;94.50;;;;;;4966094;28;20116;-57
2020/12/16 08:56:54;;;;;;;39.35;15.15;;;8.00;94.50;;;;;;4961809;28;20110;-59
2020/12/16 08:59:22;;;;;;;46.55;14.10;;;8.10;94.50;;;;;;4980417;28;20387;-57
2020/12/16 09:01:50;;;;;;;63.08;15.40;;;8.10;94.50;;;;;;4984615;28;20034;-57
2020/12/16 09:04:26;;;;;;;123.55;21.85;;;8.10;94.50;;;;;;4964266;28;20038;-56
2020/12/16 09:07:05;;;;;;;125.30;20.13;;;8.10;94.50;;;;;;4996531;28;20170;-57
2020/12/16 09:09:31;;;;;;;97.70;21.67;;;8.20;94.50;;;;;;4997613;28;20019;-56
2020/12/16 09:11:57;;;;;;;63.85;18.25;;;8.20;94.50;;;;;;4981002;28;20031;-56
2020/12/16 09:14:22;;;;;;;73.28;18.83;;;8.20;94.50;;;;;;4977817;28;20030;-57
2020/12/16 09:16:48;;;;;;;96.25;19.42;;;8.20;94.60;;;;;;4997942;28;20034;-56
2020/12/16 09:19:19;;;;;;;72.43;18.33;;;8.20;94.60;;;;;;4980826;28;20029;-58
2020/12/16 09:21:45;;;;;;;97.15;19.95;;;8.30;94.70;;;;;;4976301;28;20058;-58
2020/12/16 09:24:11;;;;;;;103.95;19.77;;;8.30;94.80;;;;;;4981297;28;20049;-56
2020/12/16 09:26:44;;;;;;;133.27;26.83;;;8.30;94.70;;;;;;4982175;28;20502;-55
2020/12/16 09:29:26;;;;;;;113.07;22.08;;;8.30;94.70;;;;;;4984634;28;20030;-56
2020/12/16 09:31:58;;;;;;;80.22;19.00;;;8.40;94.70;;;;;;4982615;28;20100;-57
2020/12/16 09:34:23;;;;;;;83.85;19.50;;;8.40;94.70;;;;;;4963589;28;20026;-58
2020/12/16 09:36:49;;;;;;;67.78;18.90;;;8.40;94.70;;;;;;4982728;28;20129;-57
2020/12/16 09:39:18;;;;;;;68.75;18.80;;;8.40;94.70;;;;;;4984718;28;20037;-58
2020/12/16 09:41:48;;;;;;;68.57;17.85;;;8.50;94.60;;;;;;4970064;28;20030;-58
2020/12/16 09:44:24;;;;;;;64.18;16.88;;;8.40;94.50;;;;;;4985228;28;20407;-58
2020/12/16 09:46:49;;;;;;;82.43;19.25;;;8.50;94.60;;;;;;4984943;28;20030;-58
2020/12/16 09:49:17;;;;;;;72.07;19.80;;;8.50;94.60;;;;;;4979107;28;20039;-56
2020/12/16 09:51:42;;;;;;;67.60;18.48;;;8.50;94.60;;;;;;4948936;28;20642;-58
2020/12/16 09:54:08;;;;;;;63.67;18.08;;;8.50;94.70;;;;;;4977740;28;20034;-59
2020/12/16 09:56:33;;;;;;;64.45;18.45;;;8.50;94.50;;;;;;4979384;28;20062;-59
2020/12/16 09:58:59;;;;;;;59.67;16.52;;;8.50;94.50;;;;;;4978323;28;20030;-57
2020/12/16 10:01:24;;;;;;;63.63;18.50;;;8.50;94.40;;;;;;4984651;28;20030;-56
2020/12/16 10:03:50;;;;;;;58.90;19.15;;;8.50;94.50;;;;;;4982421;28;20489;-56
2020/12/16 10:06:16;;;;;;;73.75;19.30;;;8.60;94.60;;;;;;4978710;28;20113;-58
2020/12/16 10:08:41;;;;;;;87.35;19.35;;;8.60;94.70;;;;;;4978670;28;20049;-57
2020/12/16 10:11:24;;;;;;;68.00;20.55;;;8.60;94.70;;;;;;4949443;28;20053;-58
2020/12/16 10:13:50;;;;;;;68.18;18.52;;;8.60;94.70;;;;;;4982432;28;20026;-57
2020/12/16 10:16:15;;;;;;;88.70;20.88;;;8.60;94.70;;;;;;4982406;28;20030;-58
2020/12/16 10:18:41;;;;;;;79.15;19.10;;;8.60;94.70;;;;;;4981122;28;20479;-56
2020/12/16 10:21:07;;;;;;;80.25;21.45;;;8.70;94.70;;;;;;4972048;28;20034;-56
2020/12/16 10:23:32;;;;;;;85.40;21.02;;;8.70;94.80;;;;;;4981330;28;20030;-57
2020/12/16 10:25:58;;;;;;;91.18;19.50;;;8.70;94.80;;;;;;4979176;28;20041;-58
2020/12/16 10:28:23;;;;;;;84.88;21.42;;;8.80;94.80;;;;;;4983302;28;20456;-59
2020/12/16 10:30:49;;;;;;;83.47;22.25;;;8.80;94.80;;;;;;4982981;28;20050;-56
2020/12/16 10:33:15;;;;;;;79.85;21.58;;;8.80;94.80;;;;;;4981133;28;20026;-57
2020/12/16 10:35:41;;;;;;;78.88;20.17;;;8.80;94.80;;;;;;4983794;28;20034;-62
2020/12/16 10:38:06;;;;;;;98.22;22.52;;;8.90;94.70;;;;;;4992748;28;20027;-57
2020/12/16 10:40:32;;;;;;;92.82;21.40;;;8.90;94.70;;;;;;4979174;28;20045;-57
2020/12/16 10:43:01;;;;;;;89.55;22.73;;;9.00;94.70;;;;;;4981827;28;20042;-57
2020/12/16 10:45:27;;;;;;;95.13;21.95;;;9.00;94.70;;;;;;4980222;28;20027;-56
2020/12/16 10:47:57;;;;;;;89.22;21.58;;;9.00;94.60;;;;;;4978867;28;20030;-57
2020/12/16 10:50:24;;;;;;;129.68;23.85;;;9.00;94.60;;;;;;4975703;28;20045;-56
2020/12/16 10:52:50;;;;;;;67.18;21.48;;;9.00;94.60;;;;;;4983071;28;20483;-57
2020/12/16 10:55:15;;;;;;;87.10;21.98;;;9.00;94.60;;;;;;4979678;28;20090;-56
2020/12/16 10:57:41;;;;;;;135.55;24.83;;;9.00;94.60;;;;;;4981439;28;20041;-56
2020/12/16 11:00:06;;;;;;;113.78;24.25;;;9.00;94.60;;;;;;4978539;28;20041;-57
2020/12/16 11:02:32;;;;;;;101.07;23.63;;;9.00;94.60;;;;;;4983902;28;20030;-56
2020/12/16 11:04:57;;;;;;;92.82;23.08;;;9.00;94.60;;;;;;4979993;28;20027;-56
2020/12/16 11:07:23;;;;;;;97.85;24.33;;;9.00;94.60;;;;;;4981403;28;21756;-57
2020/12/16 11:09:48;;;;;;;111.30;24.27;;;9.10;94.60;;;;;;4974591;28;20022;-56
2020/12/16 11:12:14;;;;;;;104.68;24.30;;;9.10;94.60;;;;;;4979754;28;20449;-56
2020/12/16 11:14:39;;;;;;;121.10;22.98;;;9.10;94.60;;;;;;4969324;28;20578;-58
2020/12/16 11:17:05;;;;;;;97.43;24.17;;;9.10;94.70;;;;;;4973956;28;20042;-57
2020/12/16 11:19:30;;;;;;;124.70;25.00;;;9.10;94.60;;;;;;4979599;28;20058;-57
2020/12/16 11:21:56;;;;;;;92.47;22.25;;;9.20;94.60;;;;;;4974550;28;20052;-58
2020/12/16 11:24:22;;;;;;;101.55;25.40;;;9.20;94.60;;;;;;4980650;28;20447;-55
2020/12/16 11:26:49;;;;;;;125.47;25.65;;;9.20;94.60;;;;;;4975020;28;20050;-58
2020/12/16 11:29:15;;;;;;;108.65;25.33;;;9.20;94.60;;;;;;4994330;28;20021;-58
2020/12/16 11:31:42;;;;;;;109.60;26.02;;;9.30;94.50;;;;;;4977984;28;20564;-57
2020/12/16 11:34:08;;;;;;;111.85;25.27;;;9.30;94.50;;;;;;4978354;28;20030;-58
2020/12/16 11:36:41;;;;;;;115.88;26.02;;;9.30;94.50;;;;;;4973212;28;20039;-56
2020/12/16 11:39:07;;;;;;;109.10;24.05;;;9.30;94.50;;;;;;4997824;28;20076;-56
2020/12/16 11:41:33;;;;;;;80.70;24.77;;;9.30;94.50;;;;;;4966763;28;20390;-58
2020/12/16 11:43:58;;;;;;;81.05;22.77;;;9.30;94.50;;;;;;4977389;28;20046;-56
2020/12/16 11:46:27;;;;;;;93.75;24.13;;;9.30;94.50;;;;;;4974582;28;20506;-56
2020/12/16 11:48:53;;;;;;;90.47;24.85;;;9.30;94.50;;;;;;4977361;28;20114;-57
2020/12/16 11:51:18;;;;;;;88.57;24.58;;;9.40;94.60;;;;;;4979229;28;20109;-58
2020/12/16 11:53:44;;;;;;;84.05;24.45;;;9.30;94.50;;;;;;4982152;28;20029;-57
2020/12/16 11:56:09;;;;;;;89.40;22.58;;;9.40;94.40;;;;;;4979026;28;20081;-57
2020/12/16 11:58:35;;;;;;;118.60;27.30;;;9.40;94.40;;;;;;4984173;28;20105;-56
2020/12/16 12:01:00;;;;;;;76.00;20.58;;;9.40;94.30;;;;;;4981805;28;20058;-59
2020/12/16 12:03:26;;;;;;;104.25;24.67;;;9.50;94.20;;;;;;4983754;28;20070;-58
2020/12/16 12:05:51;;;;;;;93.95;24.13;;;9.50;94.20;;;;;;4981430;28;20073;-58
2020/12/16 12:08:17;;;;;;;96.80;24.35;;;9.50;94.10;;;;;;4977462;28;20498;-56
2020/12/16 12:10:42;;;;;;;71.43;21.67;;;9.50;94.10;;;;;;4978790;28;20109;-56
2020/12/16 12:13:08;;;;;;;96.68;23.25;;;9.50;94.10;;;;;;4980920;28;20156;-57
2020/12/16 12:15:34;;;;;;;88.10;22.60;;;9.50;94.10;;;;;;4982523;28;20173;-58
2020/12/16 12:17:59;;;;;;;86.63;21.88;;;9.50;94.10;;;;;;4978669;28;20084;-56
2020/12/16 12:20:25;;;;;;;86.28;22.70;;;9.50;94.10;;;;;;4976530;28;20521;-58
2020/12/16 12:22:50;;;;;;;99.28;22.17;;;9.50;94.20;;;;;;4981227;28;20466;-56
2020/12/16 12:25:16;;;;;;;134.13;25.08;;;9.50;94.20;;;;;;4980824;28;20151;-57
2020/12/16 12:27:41;;;;;;;83.80;21.08;;;9.50;94.20;;;;;;4979078;28;20470;-56
2020/12/16 12:30:07;;;;;;;89.75;22.17;;;9.50;94.20;;;;;;4981172;28;20034;-58
2020/12/16 12:32:32;;;;;;;96.30;22.58;;;9.50;94.20;;;;;;4998998;28;20045;-57
2020/12/16 12:34:58;;;;;;;77.93;21.63;;;9.60;94.10;;;;;;4983153;28;20022;-57